createdAt,value
2022-08-10T00:01:13.000Z,85
2022-08-10T00:02:29.000Z,85.1
2022-08-10T00:03:45.000Z,85.1
2022-08-10T00:05:01.000Z,85.2
2022-08-10T00:06:18.000Z,85.2
2022-08-10T00:07:33.000Z,85.3
2022-08-10T00:08:49.000Z,85.5
2022-08-10T00:10:05.000Z,85.5
2022-08-10T00:11:22.000Z,85.7
2022-08-10T00:12:38.000Z,85.8
2022-08-10T00:13:54.000Z,85.9
2022-08-10T00:15:10.000Z,86
2022-08-10T00:16:27.000Z,86.1
2022-08-10T00:17:43.000Z,86.2
2022-08-10T00:18:59.000Z,86.4
2022-08-10T00:20:15.000Z,86.6
2022-08-10T00:21:31.000Z,86.8
2022-08-10T00:22:48.000Z,86.8
2022-08-10T00:24:03.000Z,87
2022-08-10T00:25:19.000Z,87.2
2022-08-10T00:26:35.000Z,87.3
2022-08-10T00:27:52.000Z,87.4
2022-08-10T00:29:08.000Z,87.4
2022-08-10T00:30:24.000Z,87.5
2022-08-10T00:31:40.000Z,87.4
2022-08-10T00:32:57.000Z,87.6
2022-08-10T00:34:13.000Z,87.6
2022-08-10T00:35:29.000Z,87.6
2022-08-10T00:36:45.000Z,87.8
2022-08-10T00:38:02.000Z,87.8
2022-08-10T00:39:18.000Z,87.9
2022-08-10T00:40:33.000Z,88.3
2022-08-10T00:41:49.000Z,88.3
2022-08-10T00:43:05.000Z,88.6
2022-08-10T00:44:22.000Z,88.6
2022-08-10T00:45:38.000Z,88.7
2022-08-10T00:46:54.000Z,88.9
2022-08-10T00:48:10.000Z,89
2022-08-10T00:49:27.000Z,89.3
2022-08-10T00:50:43.000Z,89.3
2022-08-10T00:51:59.000Z,89.4
2022-08-10T00:53:15.000Z,89.4
2022-08-10T00:54:32.000Z,89.5
2022-08-10T00:55:48.000Z,89.6
2022-08-10T00:57:03.000Z,89.5
2022-08-10T00:58:19.000Z,89.6
2022-08-10T00:59:36.000Z,89.6
2022-08-10T01:00:52.000Z,89.7
2022-08-10T01:02:08.000Z,89.9
2022-08-10T01:03:24.000Z,90
2022-08-10T01:04:40.000Z,90.2
2022-08-10T01:05:57.000Z,90.2
2022-08-10T01:07:13.000Z,90.1
2022-08-10T01:08:29.000Z,90
2022-08-10T01:09:45.000Z,90.2
2022-08-10T01:11:02.000Z,90.2
2022-08-10T01:12:18.000Z,90.1
2022-08-10T01:13:33.000Z,90.1
2022-08-10T01:14:49.000Z,90
2022-08-10T01:16:06.000Z,89.9
2022-08-10T01:17:22.000Z,90.1
2022-08-10T01:18:38.000Z,90.2
2022-08-10T01:19:54.000Z,90.2
2022-08-10T01:21:11.000Z,90.5
2022-08-10T01:22:27.000Z,90.7
2022-08-10T01:23:43.000Z,90.7
2022-08-10T01:24:59.000Z,90.9
2022-08-10T01:26:15.000Z,90.8
2022-08-10T01:27:32.000Z,90.9
2022-08-10T01:28:48.000Z,90.9
2022-08-10T01:30:03.000Z,91.1
2022-08-10T01:31:19.000Z,91.1
2022-08-10T01:32:36.000Z,91.2
2022-08-10T01:33:52.000Z,91.3
2022-08-10T01:35:07.000Z,91.4
2022-08-10T01:36:23.000Z,91.4
2022-08-10T01:37:40.000Z,91.3
2022-08-10T01:38:56.000Z,91.3
2022-08-10T01:40:12.000Z,91.4
2022-08-10T01:41:28.000Z,91.3
2022-08-10T01:42:45.000Z,91.5
2022-08-10T01:44:01.000Z,91.4
2022-08-10T01:45:17.000Z,91.7
2022-08-10T01:46:33.000Z,92
2022-08-10T01:47:49.000Z,92.1
2022-08-10T01:49:06.000Z,92.5
2022-08-10T01:50:22.000Z,92.6
2022-08-10T01:51:37.000Z,92.8
2022-08-10T01:52:53.000Z,92.9
2022-08-10T01:54:10.000Z,93.3
2022-08-10T01:55:26.000Z,93.2
2022-08-10T01:56:42.000Z,93.2
2022-08-10T01:57:58.000Z,93.3
2022-08-10T01:59:15.000Z,93.2
2022-08-10T02:00:31.000Z,93.2
2022-08-10T02:01:47.000Z,93.3
2022-08-10T02:03:03.000Z,93.1
2022-08-10T02:04:20.000Z,93
2022-08-10T02:05:36.000Z,93.2
2022-08-10T02:06:52.000Z,93.3
2022-08-10T02:08:07.000Z,93.5
2022-08-10T02:09:23.000Z,93.6
2022-08-10T02:10:40.000Z,93.8
2022-08-10T02:11:56.000Z,93.8
2022-08-10T02:13:12.000Z,93.8
2022-08-10T02:14:28.000Z,93.8
2022-08-10T02:15:45.000Z,93.9
2022-08-10T02:17:01.000Z,93.8
2022-08-10T02:18:17.000Z,94.1
2022-08-10T02:19:33.000Z,94.1
2022-08-10T02:20:50.000Z,94.1
2022-08-10T02:22:06.000Z,94.3
2022-08-10T02:23:22.000Z,94.3
2022-08-10T02:24:37.000Z,94.4
2022-08-10T02:25:54.000Z,94.4
2022-08-10T02:27:10.000Z,94.4
2022-08-10T02:28:26.000Z,94.7
2022-08-10T02:29:42.000Z,94.6
2022-08-10T02:30:58.000Z,94.7
2022-08-10T02:32:15.000Z,94.8
2022-08-10T02:33:31.000Z,95
2022-08-10T02:34:47.000Z,95
2022-08-10T02:36:03.000Z,95.2
2022-08-10T02:37:20.000Z,95.5
2022-08-10T02:38:36.000Z,95.5
2022-08-10T02:39:52.000Z,95.6
2022-08-10T02:41:07.000Z,95.6
2022-08-10T02:42:24.000Z,95.8
2022-08-10T02:43:40.000Z,96
2022-08-10T02:44:56.000Z,95.8
2022-08-10T02:46:12.000Z,95.8
2022-08-10T02:47:28.000Z,96
2022-08-10T02:48:45.000Z,96
2022-08-10T02:50:01.000Z,95.8
2022-08-10T02:51:17.000Z,95.8
2022-08-10T02:52:33.000Z,95.8
2022-08-10T02:53:50.000Z,96
2022-08-10T02:55:06.000Z,96.2
2022-08-10T02:56:22.000Z,96.2
2022-08-10T02:57:37.000Z,96.6
2022-08-10T02:58:54.000Z,96.7
2022-08-10T03:00:10.000Z,96.8
2022-08-10T03:01:26.000Z,96.6
2022-08-10T03:02:42.000Z,96.6
2022-08-10T03:03:59.000Z,96.7
2022-08-10T03:05:15.000Z,96.6
2022-08-10T03:06:31.000Z,96.4
2022-08-10T03:07:47.000Z,96.3
2022-08-10T03:09:03.000Z,96.3
2022-08-10T03:10:20.000Z,96.4
2022-08-10T03:11:36.000Z,96.5
2022-08-10T03:12:52.000Z,96.5
2022-08-10T03:14:07.000Z,97.1
2022-08-10T03:15:24.000Z,96.9
2022-08-10T03:16:40.000Z,96.8
2022-08-10T03:17:56.000Z,97
2022-08-10T03:19:12.000Z,97.2
2022-08-10T03:20:29.000Z,97.4
2022-08-10T03:21:45.000Z,97.7
2022-08-10T03:23:01.000Z,98
2022-08-10T03:24:17.000Z,98.2
2022-08-10T03:25:34.000Z,98.4
2022-08-10T03:26:50.000Z,98.3
2022-08-10T03:28:06.000Z,98.4
2022-08-10T03:29:22.000Z,98.2
2022-08-10T03:30:37.984Z,98.2
2022-08-10T03:31:54.000Z,98.2
2022-08-10T03:33:10.000Z,98.3
2022-08-10T03:34:26.000Z,98.4
2022-08-10T03:35:42.000Z,98.2
2022-08-10T03:36:59.000Z,98.3
2022-08-10T03:38:15.000Z,97.9
2022-08-10T03:39:31.000Z,97.5
2022-08-10T03:40:47.000Z,97.8
2022-08-10T03:42:04.000Z,98
2022-08-10T03:43:20.000Z,98.3
2022-08-10T03:44:36.000Z,98.7
2022-08-10T03:45:52.000Z,98.1
2022-08-10T03:47:08.000Z,97.9
2022-08-10T03:48:24.000Z,98.4
2022-08-10T03:49:40.000Z,98.7
2022-08-10T03:50:56.000Z,99
2022-08-10T03:52:12.000Z,99.3
2022-08-10T03:53:29.000Z,99.1
2022-08-10T03:54:45.000Z,99.1
2022-08-10T03:56:01.000Z,99.8
2022-08-10T03:57:17.000Z,99.8
2022-08-10T03:58:34.000Z,100
2022-08-10T03:59:50.000Z,99.8
2022-08-10T04:01:06.000Z,99.5
2022-08-10T04:02:22.000Z,99.2
2022-08-10T04:03:38.000Z,99.3
2022-08-10T04:04:54.000Z,99.6
2022-08-10T04:06:10.000Z,99.4
2022-08-10T04:07:26.000Z,99.3
2022-08-10T04:08:43.000Z,99.2
2022-08-10T04:09:59.000Z,98.9
2022-08-10T04:11:15.000Z,98.5
2022-08-10T04:12:31.000Z,98.2
2022-08-10T04:13:47.000Z,98.3
2022-08-10T04:15:04.000Z,98
2022-08-10T04:16:20.000Z,98
2022-08-10T04:17:36.000Z,98
2022-08-10T04:18:52.000Z,97.9
2022-08-10T04:20:08.000Z,97.8
2022-08-10T04:21:24.000Z,97.8
2022-08-10T04:22:40.000Z,97.7
2022-08-10T04:23:56.000Z,97.8
2022-08-10T04:25:13.000Z,97.8
2022-08-10T04:26:29.000Z,97.8
2022-08-10T04:27:45.000Z,97.9
2022-08-10T04:29:01.000Z,98.1
2022-08-10T04:30:18.000Z,98.2
2022-08-10T04:31:34.000Z,98.1
2022-08-10T04:32:50.000Z,98
2022-08-10T04:34:06.000Z,98
2022-08-10T04:35:22.000Z,97.9
2022-08-10T04:36:38.000Z,97.9
2022-08-10T04:37:54.000Z,97.8
2022-08-10T04:39:10.000Z,97.8
2022-08-10T04:40:26.000Z,97.8
2022-08-10T04:41:43.000Z,97.6
2022-08-10T04:42:59.000Z,97.5
2022-08-10T04:44:15.000Z,97.6
2022-08-10T04:45:31.000Z,97.5
2022-08-10T04:46:48.000Z,97.5
2022-08-10T04:48:04.000Z,97.3
2022-08-10T04:49:20.000Z,97.3
2022-08-10T04:50:36.000Z,97.2
2022-08-10T04:51:52.000Z,97
2022-08-10T04:53:08.000Z,96.7
2022-08-10T04:54:24.000Z,96.5
2022-08-10T04:55:40.000Z,96.6
2022-08-10T04:56:56.000Z,96.4
2022-08-10T04:58:13.000Z,96.3
2022-08-10T04:59:29.000Z,96.3
2022-08-10T05:00:44.000Z,96.2
2022-08-10T05:01:59.000Z,96
2022-08-10T05:03:16.000Z,95.7
2022-08-10T05:04:32.000Z,95.7
2022-08-10T05:05:48.000Z,95.4
2022-08-10T05:07:04.000Z,95.4
2022-08-10T05:08:21.000Z,95.4
2022-08-10T05:09:37.000Z,95.3
2022-08-10T05:10:53.000Z,95.2
2022-08-10T05:12:09.000Z,95.3
2022-08-10T05:13:25.000Z,95.3
2022-08-10T05:14:40.000Z,95.3
2022-08-10T05:15:56.000Z,95.2
2022-08-10T05:17:12.000Z,95.1
2022-08-10T05:18:29.000Z,95
2022-08-10T05:19:45.000Z,94.8
2022-08-10T05:21:01.000Z,94.6
2022-08-10T05:22:17.000Z,94.5
2022-08-10T05:23:33.000Z,94.4
2022-08-10T05:24:50.000Z,94.3
2022-08-10T05:26:06.000Z,94.2
2022-08-10T05:27:22.000Z,94
2022-08-10T05:28:38.000Z,93.8
2022-08-10T05:29:55.000Z,93.7
2022-08-10T05:31:10.000Z,93.6
2022-08-10T05:32:26.000Z,93.4
2022-08-10T05:33:42.000Z,93.3
2022-08-10T05:34:59.000Z,93.5
2022-08-10T05:36:15.000Z,93.3
2022-08-10T05:37:31.000Z,93.2
2022-08-10T05:38:47.000Z,93.1
2022-08-10T05:40:03.000Z,92.8
2022-08-10T05:41:20.000Z,92.9
2022-08-10T05:42:36.000Z,92.5
2022-08-10T05:43:52.000Z,92.7
2022-08-10T05:45:08.000Z,92.5
2022-08-10T05:46:25.000Z,92.4
2022-08-10T05:47:40.000Z,92.3
2022-08-10T05:48:56.000Z,92.4
2022-08-10T05:50:11.000Z,92.4
2022-08-10T05:51:28.000Z,92.3
2022-08-10T05:52:44.000Z,91.9
2022-08-10T05:54:00.000Z,91.5
2022-08-10T05:55:16.000Z,91.3
2022-08-10T05:56:33.000Z,90.9
2022-08-10T05:57:49.000Z,90.7
2022-08-10T05:59:05.000Z,90.9
2022-08-10T06:00:21.000Z,90.5
2022-08-10T06:01:38.000Z,90.5
2022-08-10T06:02:54.000Z,90.2
2022-08-10T06:04:10.000Z,90.1
2022-08-10T06:05:26.000Z,90.1
2022-08-10T06:06:41.000Z,89.6
2022-08-10T06:07:58.000Z,89.6
2022-08-10T06:09:14.000Z,89.5
2022-08-10T06:10:30.000Z,89.2
2022-08-10T06:11:46.000Z,89.1
2022-08-10T06:13:03.000Z,89
2022-08-10T06:14:19.000Z,88
2022-08-10T06:15:35.000Z,88.1
2022-08-10T06:16:51.000Z,87.8
2022-08-10T06:18:08.000Z,87.4
2022-08-10T06:19:24.000Z,87.2
2022-08-10T06:20:40.000Z,86.4
2022-08-10T06:21:56.000Z,86.4
2022-08-10T06:23:12.000Z,86
2022-08-10T06:24:28.000Z,85.4
2022-08-10T06:25:44.000Z,85
2022-08-10T06:27:00.000Z,84.6
2022-08-10T06:28:16.000Z,84
2022-08-10T06:29:33.000Z,83.3
2022-08-10T06:30:49.000Z,83.6
2022-08-10T06:32:05.000Z,83.6
2022-08-10T06:33:21.000Z,83.3
2022-08-10T06:34:38.000Z,82.5
2022-08-10T06:35:54.000Z,82.3
2022-08-10T06:37:10.000Z,81
2022-08-10T06:38:26.000Z,79.7
2022-08-10T06:39:42.000Z,79.3
2022-08-10T06:40:58.000Z,78.6
2022-08-10T06:42:14.000Z,78.5
2022-08-10T06:43:30.000Z,78.4
2022-08-10T06:44:46.000Z,78.2
2022-08-10T06:46:03.000Z,77.9
2022-08-10T06:47:19.000Z,78.3
2022-08-10T06:48:35.000Z,77.9
2022-08-10T06:49:51.000Z,77.4
2022-08-10T06:51:08.000Z,77.3
2022-08-10T06:52:24.000Z,77.5
2022-08-10T06:53:40.000Z,77.5
2022-08-10T06:54:56.000Z,76.2
2022-08-10T06:56:12.000Z,76.7
2022-08-10T06:57:28.000Z,77.1
2022-08-10T06:58:44.000Z,76.7
2022-08-10T07:00:00.000Z,76.3
2022-08-10T07:01:17.000Z,74.8
2022-08-10T07:02:33.000Z,76.3
2022-08-10T07:03:49.000Z,74.9
2022-08-10T07:05:05.000Z,73.9
2022-08-10T07:06:21.000Z,73.7
2022-08-10T07:07:38.000Z,73.6
2022-08-10T07:08:54.000Z,73.2
2022-08-10T07:10:10.000Z,72.1
2022-08-10T07:11:26.000Z,72
2022-08-10T07:12:42.000Z,71.2
2022-08-10T07:13:58.000Z,70.9
2022-08-10T07:15:14.000Z,70.8
2022-08-10T07:16:30.000Z,69.7
2022-08-10T07:17:47.000Z,69.5
2022-08-10T07:19:03.000Z,68.3
2022-08-10T07:20:19.000Z,67.7
2022-08-10T07:21:35.000Z,67.5
2022-08-10T07:22:52.000Z,67
2022-08-10T07:24:08.000Z,66.1
2022-08-10T07:25:24.000Z,65.8
2022-08-10T07:26:40.000Z,65.4
2022-08-10T07:27:56.000Z,65
2022-08-10T07:29:12.000Z,64.3
2022-08-10T07:30:28.000Z,63.5
2022-08-10T07:31:44.000Z,63.6
2022-08-10T07:33:00.000Z,63
2022-08-10T07:34:17.000Z,63.9
2022-08-10T07:35:33.000Z,63.7
2022-08-10T07:36:49.000Z,62.9
2022-08-10T07:38:05.000Z,62.8
2022-08-10T07:39:22.000Z,60.7
2022-08-10T07:40:38.000Z,60.8
2022-08-10T07:41:54.000Z,60.9
2022-08-10T07:43:10.000Z,61.2
2022-08-10T07:44:27.000Z,61.1
2022-08-10T07:45:42.000Z,61
2022-08-10T07:46:58.000Z,60.9
2022-08-10T07:48:14.000Z,59.9
2022-08-10T07:49:30.000Z,59.7
2022-08-10T07:50:47.000Z,59.2
2022-08-10T07:52:03.000Z,59.4
2022-08-10T07:53:19.000Z,58.8
2022-08-10T07:54:35.000Z,58.6
2022-08-10T07:55:52.000Z,58.2
2022-08-10T07:57:08.000Z,59.1
2022-08-10T07:58:24.000Z,59.4
2022-08-10T07:59:40.000Z,58.2
2022-08-10T08:00:57.000Z,57.5
2022-08-10T08:02:13.000Z,56.9
2022-08-10T08:03:28.000Z,56.4
2022-08-10T08:04:44.000Z,56.6
2022-08-10T08:06:01.000Z,56.8
2022-08-10T08:07:17.000Z,56.9
2022-08-10T08:08:33.000Z,56.3
2022-08-10T08:09:49.000Z,56.9
2022-08-10T08:11:05.000Z,56.3
2022-08-10T08:12:22.000Z,56.8
2022-08-10T08:13:38.000Z,56.3
2022-08-10T08:14:54.000Z,56
2022-08-10T08:16:10.000Z,56.2
2022-08-10T08:17:27.000Z,55.8
2022-08-10T08:18:43.000Z,55.4
2022-08-10T08:19:59.000Z,55.7
2022-08-10T08:21:15.000Z,54.7
2022-08-10T08:22:31.000Z,55.5
2022-08-10T08:23:47.000Z,55.8
2022-08-10T08:25:03.000Z,55.1
2022-08-10T08:26:19.000Z,54.3
2022-08-10T08:27:36.000Z,54.9
2022-08-10T08:28:52.000Z,55.2
2022-08-10T08:30:08.000Z,55
2022-08-10T08:31:24.000Z,54.8
2022-08-10T08:32:40.000Z,54.3
2022-08-10T08:33:57.000Z,54.5
2022-08-10T08:35:13.000Z,53.7
2022-08-10T08:36:29.000Z,54.6
2022-08-10T08:37:45.000Z,54.6
2022-08-10T08:39:01.000Z,54.3
2022-08-10T08:40:17.000Z,54.2
2022-08-10T08:41:33.000Z,53.4
2022-08-10T08:42:49.000Z,52.7
2022-08-10T08:44:06.000Z,52.8
2022-08-10T08:45:22.000Z,53.6
2022-08-10T08:46:38.000Z,52.4
2022-08-10T08:47:54.000Z,51.3
2022-08-10T08:49:11.000Z,51.7
2022-08-10T08:50:27.000Z,52
2022-08-10T08:51:43.000Z,50.6
2022-08-10T08:52:59.000Z,50.3
2022-08-10T08:54:15.000Z,49.6
2022-08-10T08:55:31.000Z,49.5
2022-08-10T08:56:47.000Z,49.6
2022-08-10T08:58:03.000Z,50
2022-08-10T08:59:19.000Z,49.8
2022-08-10T09:00:36.000Z,50
2022-08-10T09:01:52.000Z,49.1
2022-08-10T09:03:08.000Z,49.5
2022-08-10T09:04:24.000Z,49.6
2022-08-10T09:05:41.000Z,49.1
2022-08-10T09:06:57.000Z,49.4
2022-08-10T09:08:13.000Z,48.9
2022-08-10T09:09:29.000Z,48.1
2022-08-10T09:10:45.000Z,47.4
2022-08-10T09:12:01.000Z,47.2
2022-08-10T09:13:17.000Z,47.2
2022-08-10T09:14:33.000Z,46.5
2022-08-10T09:15:49.000Z,47.4
2022-08-10T09:17:06.000Z,46.8
2022-08-10T09:18:22.000Z,45.9
2022-08-10T09:19:38.000Z,45.6
2022-08-10T09:20:54.000Z,45.2
2022-08-10T09:22:11.000Z,46
2022-08-10T09:23:27.000Z,45.9
2022-08-10T09:24:43.000Z,46.2
2022-08-10T09:25:59.000Z,45.6
2022-08-10T09:27:16.000Z,45.7
2022-08-10T09:28:31.000Z,43.5
2022-08-10T09:29:47.000Z,42.9
2022-08-10T09:31:03.000Z,43
2022-08-10T09:32:19.000Z,42.5
2022-08-10T09:33:36.000Z,42.2
2022-08-10T09:34:52.000Z,42.8
2022-08-10T09:36:08.000Z,42.7
2022-08-10T09:37:24.000Z,42.1
2022-08-10T09:38:41.000Z,42.3
2022-08-10T09:39:57.000Z,42
2022-08-10T09:41:13.000Z,42.6
2022-08-10T09:42:29.000Z,41.3
2022-08-10T09:43:46.000Z,41.3
2022-08-10T09:45:01.000Z,41.4
2022-08-10T09:46:17.000Z,40.6
2022-08-10T09:47:33.000Z,41.1
2022-08-10T09:48:50.000Z,41.3
2022-08-10T09:50:06.000Z,42.2
2022-08-10T09:51:22.000Z,42.3
2022-08-10T09:52:38.000Z,41.9
2022-08-10T09:53:54.000Z,41.7
2022-08-10T09:55:11.000Z,41.3
2022-08-10T09:56:27.000Z,41.7
2022-08-10T09:57:43.000Z,40.7
2022-08-10T09:58:59.000Z,41.4
2022-08-10T10:00:16.000Z,42.9
2022-08-10T10:01:31.000Z,42.1
2022-08-10T10:02:47.000Z,41.7
2022-08-10T10:04:03.000Z,41.8
2022-08-10T10:05:19.000Z,42
2022-08-10T10:06:35.000Z,42
2022-08-10T10:07:51.000Z,42
2022-08-10T10:09:07.000Z,41.6
2022-08-10T10:10:24.000Z,41
2022-08-10T10:11:40.000Z,41.6
2022-08-10T10:12:56.000Z,42.9
2022-08-10T10:14:12.000Z,40.7
2022-08-10T10:15:28.000Z,41.8
2022-08-10T10:16:45.000Z,40.7
2022-08-10T10:18:01.000Z,41
2022-08-10T10:19:17.000Z,41.4
2022-08-10T10:20:33.000Z,40.9
2022-08-10T10:21:49.000Z,41.3
2022-08-10T10:23:05.000Z,40.8
2022-08-10T10:24:21.000Z,40.9
2022-08-10T10:25:37.000Z,41
2022-08-10T10:26:54.000Z,40.2
2022-08-10T10:28:10.000Z,39.5
2022-08-10T10:29:26.000Z,40.2
2022-08-10T10:30:41.000Z,40.4
2022-08-10T10:31:57.000Z,40.7
2022-08-10T10:33:13.000Z,40.7
2022-08-10T10:34:29.000Z,40.6
2022-08-10T10:35:45.000Z,40
2022-08-10T10:37:02.000Z,40.6
2022-08-10T10:38:18.000Z,40.5
2022-08-10T10:39:34.000Z,40.5
2022-08-10T10:40:50.000Z,40.2
2022-08-10T10:42:06.000Z,40.6
2022-08-10T10:43:23.000Z,39.2
2022-08-10T10:44:39.000Z,39.1
2022-08-10T10:45:54.000Z,39
2022-08-10T10:47:09.000Z,38.8
2022-08-10T10:48:26.000Z,39.3
2022-08-10T10:49:42.000Z,39.7
2022-08-10T10:50:58.000Z,39
2022-08-10T10:52:14.000Z,38
2022-08-10T10:53:31.000Z,38.3
2022-08-10T10:54:47.000Z,38.8
2022-08-10T10:56:03.000Z,38.6
2022-08-10T10:57:19.000Z,39.8
2022-08-10T10:58:36.000Z,39.5
2022-08-10T10:59:52.000Z,39.2
2022-08-10T11:01:08.000Z,40
2022-08-10T11:02:24.000Z,40.8
2022-08-10T11:03:40.000Z,39.9
2022-08-10T11:04:56.000Z,39.2
2022-08-10T11:06:12.000Z,37.5
2022-08-10T11:07:28.000Z,39.3
2022-08-10T11:08:44.000Z,37.7
2022-08-10T11:10:01.000Z,39
2022-08-10T11:11:17.000Z,38.4
2022-08-10T11:12:32.000Z,38.8
2022-08-10T11:13:47.000Z,38.8
2022-08-10T11:15:04.000Z,39
2022-08-10T11:16:20.000Z,40
2022-08-10T11:17:36.000Z,39.5
2022-08-10T11:18:51.000Z,39.1
2022-08-10T11:20:07.000Z,38.8
2022-08-10T11:21:23.000Z,38.9
2022-08-10T11:22:39.000Z,37.8
2022-08-10T11:23:55.000Z,37
2022-08-10T11:25:12.000Z,38
2022-08-10T11:26:28.000Z,36.7
2022-08-10T11:27:44.000Z,36.8
2022-08-10T11:29:00.000Z,36.2
2022-08-10T11:30:16.000Z,35.5
2022-08-10T11:31:33.000Z,34.5
2022-08-10T11:32:49.000Z,34.5
2022-08-10T11:34:05.000Z,35.3
2022-08-10T11:35:21.000Z,34.7
2022-08-10T11:36:37.000Z,35.3
2022-08-10T11:37:53.000Z,35
2022-08-10T11:39:09.000Z,35.1
2022-08-10T11:40:25.000Z,35.4
2022-08-10T11:41:42.000Z,36
2022-08-10T11:42:58.000Z,35.4
2022-08-10T11:44:14.000Z,35.1
2022-08-10T11:45:30.000Z,35.6
2022-08-10T11:46:47.000Z,35.2
2022-08-10T11:48:03.000Z,35.8
2022-08-10T11:49:19.000Z,37.7
2022-08-10T11:50:35.000Z,37.3
2022-08-10T11:51:51.000Z,37.8
2022-08-10T11:53:07.000Z,35.4
2022-08-10T11:54:23.000Z,36.9
2022-08-10T11:55:39.000Z,36.1
2022-08-10T11:56:55.000Z,35.8
2022-08-10T11:58:12.000Z,35.2
2022-08-10T11:59:28.000Z,35.4
2022-08-10T12:00:44.000Z,36
2022-08-10T12:02:00.000Z,35.7
2022-08-10T12:03:17.000Z,36.3
2022-08-10T12:04:33.000Z,38.1
2022-08-10T12:05:49.000Z,36.4
2022-08-10T12:07:05.000Z,36.6
2022-08-10T12:08:22.000Z,35.8
2022-08-10T12:09:37.000Z,35
2022-08-10T12:10:53.000Z,34.9
2022-08-10T12:12:09.000Z,34.5
2022-08-10T12:13:25.000Z,33.7
2022-08-10T12:14:42.000Z,33.2
2022-08-10T12:15:58.000Z,33.5
2022-08-10T12:17:14.000Z,33.3
2022-08-10T12:18:30.000Z,34.7
2022-08-10T12:19:47.000Z,34.5
2022-08-10T12:21:03.000Z,35.3
2022-08-10T12:22:19.000Z,35.1
2022-08-10T12:23:35.000Z,34.3
2022-08-10T12:24:52.000Z,34.4
2022-08-10T12:26:07.000Z,34.8
2022-08-10T12:27:23.000Z,34.3
2022-08-10T12:28:39.000Z,33.6
2022-08-10T12:29:56.000Z,35.6
2022-08-10T12:31:12.000Z,33.8
2022-08-10T12:32:28.000Z,33.8
2022-08-10T12:33:44.000Z,34.5
2022-08-10T12:35:00.000Z,33.6
2022-08-10T12:36:17.000Z,34.6
2022-08-10T12:37:33.000Z,33.8
2022-08-10T12:38:49.000Z,33.6
2022-08-10T12:40:05.000Z,34.1
2022-08-10T12:41:22.000Z,35.1
2022-08-10T12:42:37.000Z,36.6
2022-08-10T12:43:53.000Z,33.8
2022-08-10T12:45:09.000Z,35.7
2022-08-10T12:46:26.000Z,34.1
2022-08-10T12:47:42.000Z,35
2022-08-10T12:48:58.000Z,34
2022-08-10T12:50:14.000Z,34.5
2022-08-10T12:51:31.000Z,31.6
2022-08-10T12:52:47.000Z,32.4
2022-08-10T12:54:03.000Z,33
2022-08-10T12:55:19.000Z,33.4
2022-08-10T12:56:35.000Z,34.6
2022-08-10T12:57:52.000Z,34.5
2022-08-10T12:59:07.000Z,34.4
2022-08-10T13:00:23.000Z,32.8
2022-08-10T13:01:39.000Z,33.3
2022-08-10T13:02:56.000Z,33.4
2022-08-10T13:04:12.000Z,32.6
2022-08-10T13:05:28.000Z,32.4
2022-08-10T13:06:44.000Z,31.6
2022-08-10T13:08:01.000Z,31.5
2022-08-10T13:09:17.000Z,33.6
2022-08-10T13:10:33.000Z,32.8
2022-08-10T13:11:49.000Z,32.8
2022-08-10T13:13:06.000Z,32.6
2022-08-10T13:14:22.000Z,32.7
2022-08-10T13:15:37.000Z,33.6
2022-08-10T13:16:53.000Z,35.3
2022-08-10T13:18:09.000Z,34.5
2022-08-10T13:19:26.000Z,34.1
2022-08-10T13:20:42.000Z,33.4
2022-08-10T13:21:58.000Z,33.9
2022-08-10T13:23:14.000Z,34.9
2022-08-10T13:24:31.000Z,32.5
2022-08-10T13:25:47.000Z,32.8
2022-08-10T13:27:03.000Z,33.3
2022-08-10T13:28:19.000Z,32.9
2022-08-10T13:29:36.000Z,31.1
2022-08-10T13:30:52.000Z,30.8
2022-08-10T13:32:07.000Z,31.1
2022-08-10T13:33:23.000Z,29.2
2022-08-10T13:34:40.000Z,29.9
2022-08-10T13:35:56.000Z,29.8
2022-08-10T13:37:12.000Z,30.1
2022-08-10T13:38:28.000Z,30.3
2022-08-10T13:39:44.000Z,29.3
2022-08-10T13:41:01.000Z,29
2022-08-10T13:42:17.000Z,28.9
2022-08-10T13:43:33.000Z,29.8
2022-08-10T13:44:49.000Z,30
2022-08-10T13:46:06.000Z,28.9
2022-08-10T13:47:22.000Z,28.5
2022-08-10T13:48:37.000Z,28.1
2022-08-10T13:49:53.000Z,29
2022-08-10T13:51:10.000Z,30.4
2022-08-10T13:52:26.000Z,30.1
2022-08-10T13:53:42.000Z,29.7
2022-08-10T13:54:58.000Z,29.8
2022-08-10T13:56:15.000Z,28.5
2022-08-10T13:57:31.000Z,28.7
2022-08-10T13:58:47.000Z,28.3
2022-08-10T14:00:03.000Z,28.2
2022-08-10T14:01:19.000Z,28.1
2022-08-10T14:02:36.000Z,29
2022-08-10T14:03:52.000Z,28.5
2022-08-10T14:05:07.000Z,29.7
2022-08-10T14:06:22.000Z,29.3
2022-08-10T14:07:38.000Z,30.4
2022-08-10T14:08:54.000Z,29.8
2022-08-10T14:10:09.000Z,30.4
2022-08-10T14:11:24.000Z,30.2
2022-08-10T14:12:41.000Z,30.4
2022-08-10T14:13:57.000Z,29.7
2022-08-10T14:15:13.000Z,29.7
2022-08-10T14:16:29.000Z,29.6
2022-08-10T14:17:46.000Z,29.6
2022-08-10T14:19:02.000Z,30.1
2022-08-10T14:20:18.000Z,30.7
2022-08-10T14:21:33.000Z,29.2
2022-08-10T14:22:50.000Z,28.9
2022-08-10T14:24:06.000Z,28.6
2022-08-10T14:25:22.000Z,28.5
2022-08-10T14:26:38.000Z,28.9
2022-08-10T14:27:55.000Z,27.9
2022-08-10T14:29:11.000Z,27.9
2022-08-10T14:30:27.000Z,28.2
2022-08-10T14:31:43.000Z,27.8
2022-08-10T14:32:59.000Z,27.6
2022-08-10T14:34:16.000Z,27.9
2022-08-10T14:35:32.000Z,27.6
2022-08-10T14:36:48.000Z,28.4
2022-08-10T14:38:03.000Z,28.2
2022-08-10T14:39:20.000Z,29.2
2022-08-10T14:40:36.000Z,27.8
2022-08-10T14:41:52.000Z,27.8
2022-08-10T14:43:08.000Z,28.1
2022-08-10T14:44:25.000Z,27.3
2022-08-10T14:45:41.000Z,26.6
2022-08-10T14:46:57.000Z,25.9
2022-08-10T14:48:13.000Z,26.9
2022-08-10T14:49:30.000Z,27
2022-08-10T14:50:46.000Z,27.4
2022-08-10T14:52:02.000Z,27.2
2022-08-10T14:53:18.000Z,27.4
2022-08-10T14:54:33.000Z,27.1
2022-08-10T14:55:50.000Z,27
2022-08-10T14:57:06.000Z,27.1
2022-08-10T14:58:22.000Z,27.5
2022-08-10T14:59:38.000Z,28.5
2022-08-10T15:00:55.000Z,26.7
2022-08-10T15:02:11.000Z,26.8
2022-08-10T15:03:27.000Z,27.1
2022-08-10T15:04:43.000Z,27.6
2022-08-10T15:06:00.000Z,28.5
2022-08-10T15:07:16.000Z,29.4
2022-08-10T15:08:32.000Z,29
2022-08-10T15:09:47.000Z,28.6
2022-08-10T15:11:03.000Z,27.8
2022-08-10T15:12:19.000Z,28.4
2022-08-10T15:13:34.000Z,28.9
2022-08-10T15:14:49.000Z,27.7
2022-08-10T15:16:06.000Z,28.1
2022-08-10T15:17:22.000Z,28.2
2022-08-10T15:18:38.000Z,27.9
2022-08-10T15:19:54.000Z,27.2
2022-08-10T15:21:11.000Z,27.2
2022-08-10T15:22:27.000Z,27.4
2022-08-10T15:23:43.000Z,27.6
2022-08-10T15:24:59.000Z,27.8
2022-08-10T15:26:15.000Z,27.5
2022-08-10T15:27:32.000Z,28
2022-08-10T15:28:48.000Z,28.1
2022-08-10T15:30:04.000Z,27.8
2022-08-10T15:31:20.000Z,29.6
2022-08-10T15:32:36.000Z,27.4
2022-08-10T15:33:52.000Z,28.2
2022-08-10T15:35:08.000Z,28.5
2022-08-10T15:36:24.000Z,29.1
2022-08-10T15:37:41.000Z,29
2022-08-10T15:38:57.000Z,29.7
2022-08-10T15:40:12.000Z,28.8
2022-08-10T15:41:28.000Z,29.4
2022-08-10T15:42:44.000Z,29.9
2022-08-10T15:44:00.000Z,29.4
2022-08-10T15:45:16.000Z,29.3
2022-08-10T15:46:32.000Z,28.6
2022-08-10T15:47:49.000Z,27.7
2022-08-10T15:49:05.000Z,27.5
2022-08-10T15:50:21.000Z,28.2
2022-08-10T15:51:37.000Z,27.9
2022-08-10T15:52:53.000Z,27.7
2022-08-10T15:54:10.000Z,27.9
2022-08-10T15:55:26.000Z,28.1
2022-08-10T15:56:42.000Z,27.7
2022-08-10T15:57:58.000Z,29.1
2022-08-10T15:59:14.000Z,28.6
2022-08-10T16:00:30.000Z,28.9
2022-08-10T16:01:46.000Z,29.4
2022-08-10T16:03:02.000Z,27.9
2022-08-10T16:04:19.000Z,27.9
2022-08-10T16:05:35.000Z,29
2022-08-10T16:06:50.000Z,28.8
2022-08-10T16:08:05.000Z,28.6
2022-08-10T16:09:21.000Z,29.1
2022-08-10T16:10:36.000Z,28.8
2022-08-10T16:11:52.000Z,28.7
2022-08-10T16:13:08.000Z,28.4
2022-08-10T16:14:25.000Z,28.5
2022-08-10T16:15:41.000Z,27.7
2022-08-10T16:16:57.000Z,27.2
2022-08-10T16:18:13.000Z,26.9
2022-08-10T16:19:29.000Z,26.9
2022-08-10T16:20:46.000Z,27.5
2022-08-10T16:22:02.000Z,28.1
2022-08-10T16:23:18.000Z,28.3
2022-08-10T16:24:34.000Z,28.3
2022-08-10T16:25:51.000Z,27.9
2022-08-10T16:27:06.000Z,28.8
2022-08-10T16:28:22.000Z,28.2
2022-08-10T16:29:38.000Z,28.3
2022-08-10T16:30:55.000Z,27.6
2022-08-10T16:32:11.000Z,27.5
2022-08-10T16:33:27.000Z,27.9
2022-08-10T16:34:43.000Z,28.2
2022-08-10T16:35:59.000Z,27.6
2022-08-10T16:37:14.000Z,28.3
2022-08-10T16:38:29.000Z,28.4
2022-08-10T16:39:44.000Z,28.7
2022-08-10T16:41:01.000Z,28.7
2022-08-10T16:42:17.000Z,28.6
2022-08-10T16:43:33.000Z,29
2022-08-10T16:44:49.000Z,29.8
2022-08-10T16:46:05.000Z,29.5
2022-08-10T16:47:22.000Z,29.8
2022-08-10T16:48:38.000Z,29.6
2022-08-10T16:49:54.000Z,29.1
2022-08-10T16:51:10.000Z,28.5
2022-08-10T16:52:27.000Z,28
2022-08-10T16:53:43.000Z,29
2022-08-10T16:54:59.000Z,28.3
2022-08-10T16:56:14.000Z,28.4
2022-08-10T16:57:31.000Z,28.1
2022-08-10T16:58:47.000Z,29.1
2022-08-10T17:00:03.000Z,29
2022-08-10T17:01:19.000Z,28.7